sim
Sign-in with your pilot id or email,
or register
Callsign
Passwort

Schedule Details

Flight Number: RYR3805 (3)
Departure: Manchester Airport (EGCC) at 09:20
Arrival: Fuerteventura Airport (GCFV) at 13:35
Route: Ryanair Passenger Schedule. Enter filed route here before submitting Pirep.

Weather Information
Getting current METAR information for EGCC 160250Z AUTO 18005KT 130V220 9999 OVC024 09/06 Q1018 NOSIG
Getting current METAR information for GCFV 160230Z AUTO 28005KT 9999 NCD 13/10 Q1018

Schedule Frequency

Route Map